Time;durP1;ratioP1;P1;durP2;ratioP2;P2;SDS_P1;SDS_P2;PMS_P1;PMS_P2;Temp;Humidity;BMP_temperature;BMP_pressure;BME280_temperature;BME280_humidity;BME280_pressure;Samples;Min_cycle;Max_cycle;Signal;HPM_P1;HPM_P2
2020/12/22 00:02:10;;;;;;;7.30;4.13;;;;;;;7.92;91.81;98878.09;5053149;28;20372;-72
2020/12/22 00:04:35;;;;;;;8.55;3.88;;;;;;;7.88;92.55;98869.53;5050970;28;20031;-72
2020/12/22 00:07:00;;;;;;;10.75;4.70;;;;;;;7.81;92.84;98857.84;5051796;28;20474;-72
2020/12/22 00:09:25;;;;;;;11.02;5.28;;;;;;;7.69;92.90;98852.88;5052825;28;20032;-72
2020/12/22 00:11:51;;;;;;;8.50;4.78;;;;;;;7.76;93.42;98853.00;5052009;28;20044;-71
2020/12/22 00:14:16;;;;;;;10.45;4.90;;;;;;;7.71;93.46;98851.88;5053089;28;20090;-70
2020/12/22 00:16:42;;;;;;;9.43;4.93;;;;;;;7.76;93.48;98844.09;5051680;28;20025;-71
2020/12/22 00:19:07;;;;;;;8.48;5.10;;;;;;;7.83;93.58;98842.31;5050941;28;20040;-71
2020/12/22 00:21:34;;;;;;;8.07;4.97;;;;;;;7.91;93.15;98836.81;5052513;28;20025;-70
2020/12/22 00:23:59;;;;;;;6.38;3.53;;;;;;;7.95;93.14;98835.44;5052704;28;20037;-71
2020/12/22 00:26:25;;;;;;;7.53;4.03;;;;;;;7.99;92.93;98825.13;5046637;28;20041;-71
2020/12/22 00:28:51;;;;;;;6.97;3.65;;;;;;;7.95;92.84;98816.59;5045582;28;20025;-71
2020/12/22 00:31:16;;;;;;;6.88;3.17;;;;;;;8.08;92.66;98842.88;5051689;28;20079;-71
2020/12/22 00:33:41;;;;;;;7.68;3.85;;;;;;;8.05;92.92;98835.19;5051967;28;20036;-71
2020/12/22 00:36:08;;;;;;;6.28;3.83;;;;;;;7.98;92.86;98823.47;5049559;28;20021;-71
2020/12/22 00:38:33;;;;;;;5.45;3.65;;;;;;;8.07;92.57;98836.66;5051941;28;20072;-71
2020/12/22 00:40:58;;;;;;;5.63;3.58;;;;;;;8.01;92.97;98834.69;5052400;28;20052;-73
2020/12/22 00:43:23;;;;;;;6.38;3.75;;;;;;;8.06;93.06;98834.97;5052930;28;20032;-71
2020/12/22 00:45:49;;;;;;;6.65;3.80;;;;;;;8.08;93.09;98834.78;5051090;28;20033;-71
2020/12/22 00:48:14;;;;;;;6.93;3.75;;;;;;;8.07;92.99;98820.50;5052318;28;20017;-70
2020/12/22 00:50:39;;;;;;;7.15;3.60;;;;;;;8.15;93.04;98832.19;5052116;28;20025;-70
2020/12/22 00:53:04;;;;;;;7.78;3.42;;;;;;;8.18;92.86;98827.28;5052099;28;20035;-70
2020/12/22 00:55:30;;;;;;;6.70;3.55;;;;;;;8.20;92.79;98832.44;5051382;28;20390;-71
2020/12/22 00:57:55;;;;;;;5.28;2.85;;;;;;;8.19;92.46;98823.53;5050975;28;20024;-70
2020/12/22 01:00:21;;;;;;;4.75;2.78;;;;;;;8.25;92.70;98832.72;5051605;28;20106;-70
2020/12/22 01:02:47;;;;;;;4.22;2.72;;;;;;;8.33;92.71;98829.94;5050700;28;20052;-70
2020/12/22 01:05:12;;;;;;;3.28;2.10;;;;;;;8.34;92.18;98821.66;5046977;28;20021;-70
2020/12/22 01:07:37;;;;;;;2.88;2.17;;;;;;;8.53;92.26;98825.66;5049689;28;20074;-70
2020/12/22 01:10:03;;;;;;;3.42;2.00;;;;;;;8.55;91.97;98828.16;5052441;28;20036;-72
2020/12/22 01:12:29;;;;;;;3.05;1.88;;;;;;;8.48;92.19;98825.38;5051910;28;20594;-71
2020/12/22 01:14:54;;;;;;;3.55;2.03;;;;;;;8.60;92.15;98835.69;5050470;28;20025;-71
2020/12/22 01:17:19;;;;;;;4.43;2.03;;;;;;;8.58;92.09;98833.19;5051692;28;20045;-71
2020/12/22 01:19:45;;;;;;;2.42;1.73;;;;;;;8.59;92.09;98840.22;5050713;28;20020;-71
2020/12/22 01:22:10;;;;;;;2.55;1.75;;;;;;;8.65;91.94;98830.56;5048009;28;20036;-71
2020/12/22 01:24:35;;;;;;;3.80;2.00;;;;;;;8.57;92.36;98823.44;5050904;28;20040;-72
2020/12/22 01:27:01;;;;;;;3.00;1.67;;;;;;;8.67;92.07;98821.25;5051372;28;20375;-71
2020/12/22 01:29:26;;;;;;;2.88;1.58;;;;;;;8.82;91.29;98831.16;5050648;28;20033;-71
2020/12/22 01:31:51;;;;;;;2.88;1.63;;;;;;;8.84;91.49;98832.63;5053939;28;20474;-71
2020/12/22 01:34:16;;;;;;;2.20;1.38;;;;;;;8.86;91.84;98840.53;5050146;28;20711;-71
2020/12/22 01:36:42;;;;;;;2.55;1.58;;;;;;;8.86;91.35;98841.38;5051782;28;20082;-71
2020/12/22 01:39:07;;;;;;;3.72;1.80;;;;;;;8.70;91.77;98825.44;5052004;28;20083;-72
2020/12/22 01:41:34;;;;;;;1.85;1.10;;;;;;;8.91;91.38;98838.94;5044650;28;20029;-71
2020/12/22 01:44:08;;;;;;;1.85;1.23;;;;;;;8.97;91.38;98840.03;5049570;28;20025;-72
2020/12/22 01:46:45;;;;;;;3.45;1.30;;;;;;;8.98;91.21;98839.81;5050562;28;20539;-72
2020/12/22 01:49:25;;;;;;;2.60;1.60;;;;;;;9.08;90.95;98838.69;5066060;28;20021;-71
2020/12/22 01:51:53;;;;;;;3.60;1.20;;;;;;;9.06;90.83;98819.16;5049825;28;20056;-72
2020/12/22 01:54:18;;;;;;;2.25;0.90;;;;;;;9.14;90.75;98817.16;5050516;28;20025;-71
2020/12/22 01:56:45;;;;;;;0.98;0.80;;;;;;;9.15;90.62;98818.81;5050374;28;20066;-71
2020/12/22 01:59:10;;;;;;;3.67;1.20;;;;;;;9.21;90.68;98817.22;5051559;28;20024;-70
2020/12/22 02:01:36;;;;;;;2.08;1.02;;;;;;;9.26;90.61;98822.03;5050560;28;20031;-70
2020/12/22 02:04:03;;;;;;;5.82;1.58;;;;;;;9.29;90.64;98817.06;5050659;28;20716;-70
2020/12/22 02:06:29;;;;;;;2.42;0.98;;;;;;;9.33;90.13;98814.84;5050424;28;20640;-71
2020/12/22 02:08:55;;;;;;;1.55;0.68;;;;;;;9.42;90.02;98814.47;5050916;28;20061;-70
2020/12/22 02:11:25;;;;;;;1.45;0.70;;;;;;;9.49;90.00;98797.50;5050644;28;20064;-70
2020/12/22 02:13:51;;;;;;;1.75;0.50;;;;;;;9.60;89.51;98811.28;5050685;28;20032;-70
2020/12/22 02:16:17;;;;;;;0.80;0.40;;;;;;;9.61;89.44;98814.81;5050546;28;20032;-70
2020/12/22 02:18:42;;;;;;;0.75;0.50;;;;;;;9.69;89.20;98811.97;5050057;28;20021;-70
2020/12/22 02:21:08;;;;;;;0.98;0.28;;;;;;;9.84;88.18;98795.66;5051155;28;20155;-70
2020/12/22 02:23:33;;;;;;;0.60;0.32;;;;;;;9.75;88.43;98808.50;5051096;28;20040;-70
2020/12/22 02:25:58;;;;;;;1.30;0.52;;;;;;;9.77;88.62;98811.84;5052300;28;20751;-70
2020/12/22 02:28:23;;;;;;;1.65;0.68;;;;;;;9.77;88.60;98800.16;5049088;28;20028;-70
2020/12/22 02:30:49;;;;;;;1.27;0.68;;;;;;;9.70;88.99;98789.34;5050922;28;20029;-70
2020/12/22 02:33:14;;;;;;;1.23;0.60;;;;;;;9.66;88.47;98790.75;5049029;28;20545;-70
2020/12/22 02:35:40;;;;;;;0.82;0.60;;;;;;;9.66;89.11;98788.06;5050472;28;20040;-72
2020/12/22 02:38:06;;;;;;;0.90;0.30;;;;;;;9.75;88.74;98792.28;5051291;28;20048;-71
2020/12/22 02:40:31;;;;;;;0.98;0.40;;;;;;;9.75;88.54;98797.69;5050804;28;20067;-71
2020/12/22 02:43:07;;;;;;;0.98;0.50;;;;;;;9.76;88.52;98783.13;5050831;28;20070;-71
2020/12/22 02:45:33;;;;;;;0.77;0.40;;;;;;;9.82;88.30;98793.16;5049416;28;20112;-71
2020/12/22 02:47:58;;;;;;;1.60;0.50;;;;;;;9.82;88.61;98795.88;5049519;28;20149;-72
2020/12/22 02:50:23;;;;;;;1.00;0.40;;;;;;;9.78;88.48;98789.19;5051018;28;20478;-71
2020/12/22 02:52:49;;;;;;;0.55;0.30;;;;;;;9.90;88.10;98777.81;5049042;28;20061;-72
2020/12/22 02:55:14;;;;;;;0.45;0.20;;;;;;;9.95;87.93;98775.34;5048497;28;20025;-71
2020/12/22 02:57:39;;;;;;;0.40;0.30;;;;;;;9.98;87.41;98780.34;5049571;28;20029;-72
2020/12/22 03:00:04;;;;;;;0.85;0.40;;;;;;;9.97;87.90;98782.22;5048977;28;20071;-72
2020/12/22 03:02:30;;;;;;;0.50;0.30;;;;;;;9.95;88.16;98775.34;5048816;28;20086;-71
2020/12/22 03:04:55;;;;;;;0.55;0.20;;;;;;;9.91;87.96;98774.91;5050134;28;20017;-72
2020/12/22 03:07:21;;;;;;;1.27;0.25;;;;;;;10.03;87.09;98781.44;5050809;28;20039;-72
2020/12/22 03:09:46;;;;;;;0.30;0.20;;;;;;;10.14;86.52;98782.72;5052546;28;20469;-71
2020/12/22 03:12:11;;;;;;;0.47;0.20;;;;;;;10.15;86.12;98784.38;5053400;28;20025;-72
2020/12/22 03:14:36;;;;;;;0.35;0.20;;;;;;;10.19;85.93;98774.84;5054463;28;20067;-72
2020/12/22 03:17:02;;;;;;;0.73;0.20;;;;;;;10.20;85.98;98783.78;5053730;28;20100;-72
2020/12/22 03:19:27;;;;;;;0.32;0.30;;;;;;;10.21;85.90;98771.94;5053338;28;20036;-72
2020/12/22 03:21:52;;;;;;;0.65;0.28;;;;;;;10.29;85.57;98780.72;5053867;28;20027;-72
2020/12/22 03:24:17;;;;;;;0.82;0.30;;;;;;;10.30;85.56;98777.00;5052593;28;20067;-72
2020/12/22 03:26:43;;;;;;;0.20;0.20;;;;;;;10.37;85.57;98778.88;5053552;28;20020;-72
2020/12/22 03:29:08;;;;;;;0.57;0.20;;;;;;;10.36;85.32;98777.22;5054275;28;20394;-72
2020/12/22 03:31:33;;;;;;;0.60;0.30;;;;;;;10.42;85.22;98777.22;5054209;28;20128;-72
2020/12/22 03:33:59;;;;;;;0.60;0.30;;;;;;;10.42;85.54;98766.41;5053223;28;20025;-71
2020/12/22 03:36:24;;;;;;;1.30;0.20;;;;;;;10.46;84.92;98761.44;5052257;28;20027;-71
2020/12/22 03:38:49;;;;;;;0.30;0.20;;;;;;;10.51;84.97;98777.91;5052145;28;20032;-72
2020/12/22 03:41:14;;;;;;;0.70;0.30;;;;;;;10.40;85.13;98762.25;5053883;28;20021;-72
2020/12/22 03:43:40;;;;;;;0.17;0.17;;;;;;;10.46;85.21;98774.97;5052330;28;20467;-71
2020/12/22 03:46:06;;;;;;;0.30;0.30;;;;;;;10.55;85.12;98787.25;5053306;28;20071;-72
2020/12/22 03:48:31;;;;;;;0.22;0.20;;;;;;;10.51;85.13;98781.44;5053098;28;20028;-72
2020/12/22 03:50:57;;;;;;;0.20;0.10;;;;;;;10.57;84.62;98785.19;5053632;28;20029;-72
2020/12/22 03:53:22;;;;;;;0.17;0.10;;;;;;;10.62;84.90;98792.69;5051144;28;20474;-72
2020/12/22 03:55:47;;;;;;;0.43;0.10;;;;;;;10.59;84.87;98785.00;5052011;28;20120;-71
2020/12/22 03:58:13;;;;;;;1.20;0.10;;;;;;;10.63;84.50;98802.47;5053439;28;20025;-72
2020/12/22 04:00:38;;;;;;;0.13;0.13;;;;;;;10.65;84.98;98801.22;5053341;28;20041;-71
2020/12/22 04:03:04;;;;;;;0.28;0.20;;;;;;;10.62;85.01;98788.13;5051742;28;20048;-71
2020/12/22 04:05:29;;;;;;;0.10;0.10;;;;;;;10.59;85.18;98787.72;5052757;28;20021;-71
2020/12/22 04:07:54;;;;;;;0.20;0.10;;;;;;;10.49;85.38;98772.69;5045998;28;20047;-72
2020/12/22 04:10:19;;;;;;;0.10;0.10;;;;;;;10.61;84.98;98782.91;5053573;28;20067;-72
2020/12/22 04:12:45;;;;;;;0.40;0.10;;;;;;;10.59;84.98;98785.84;5053430;28;20395;-71
2020/12/22 04:15:10;;;;;;;1.85;0.30;;;;;;;10.56;85.00;98778.13;5052131;28;20451;-72
2020/12/22 04:17:39;;;;;;;0.10;0.10;;;;;;;10.63;84.40;98784.38;5061955;28;20037;-72
2020/12/22 04:20:04;;;;;;;2.90;0.25;;;;;;;10.71;84.52;98786.88;5066794;28;20071;-71
2020/12/22 04:22:29;;;;;;;0.20;0.17;;;;;;;10.69;84.83;98796.28;5051795;28;20036;-71
2020/12/22 04:24:55;;;;;;;0.10;0.10;;;;;;;10.64;84.69;98787.94;5052248;28;20032;-71
2020/12/22 04:27:20;;;;;;;1.02;0.00;;;;;;;10.71;84.81;98800.41;5053106;28;20028;-71
2020/12/22 04:29:45;;;;;;;3.03;0.30;;;;;;;10.71;84.90;98808.53;5050583;28;20033;-72
2020/12/22 04:32:11;;;;;;;1.75;0.20;;;;;;;10.71;84.64;98813.94;5052768;28;20032;-72
2020/12/22 04:34:36;;;;;;;0.10;0.10;;;;;;;10.69;84.81;98802.50;5050703;28;20044;-72
2020/12/22 04:37:01;;;;;;;0.22;0.20;;;;;;;10.67;84.62;98793.75;5050896;28;20021;-71
2020/12/22 04:39:27;;;;;;;0.52;0.10;;;;;;;10.72;84.61;98801.28;5052945;28;20123;-72
2020/12/22 04:41:57;;;;;;;2.38;0.10;;;;;;;10.65;85.08;98790.41;5051503;28;20043;-71
2020/12/22 04:44:22;;;;;;;0.20;0.10;;;;;;;10.70;84.91;98801.47;5050303;28;20025;-72
2020/12/22 04:46:50;;;;;;;0.20;0.20;;;;;;;10.63;85.24;98795.19;5049805;28;20033;-71
2020/12/22 04:49:21;;;;;;;0.20;0.10;;;;;;;10.73;85.02;98811.03;5051521;28;20021;-71
2020/12/22 04:51:50;;;;;;;0.10;0.05;;;;;;;10.73;84.50;98813.75;5052324;28;20060;-72
2020/12/22 04:54:18;;;;;;;1.42;0.28;;;;;;;10.71;84.96;98803.13;5050969;28;20029;-71
2020/12/22 04:56:45;;;;;;;0.10;0.10;;;;;;;10.69;85.21;98802.50;5051122;28;20045;-71
2020/12/22 04:59:10;;;;;;;0.50;0.13;;;;;;;10.67;84.44;98790.22;5034808;28;20785;-72
2020/12/22 05:01:37;;;;;;;0.28;0.10;;;;;;;10.67;84.90;98785.63;5063176;28;20036;-72
2020/12/22 05:04:02;;;;;;;0.47;0.10;;;;;;;10.59;84.66;98783.13;5060476;28;20112;-72
2020/12/22 05:06:27;;;;;;;0.75;0.10;;;;;;;10.69;84.53;98793.56;5050745;28;20036;-72
2020/12/22 05:08:53;;;;;;;0.88;0.15;;;;;;;10.72;84.71;98787.75;5050902;28;20117;-72
2020/12/22 05:11:18;;;;;;;4.00;1.60;;;;;;;10.66;84.72;98792.09;5050398;28;20087;-72
2020/12/22 05:13:47;;;;;;;2.45;0.95;;;;;;;10.75;84.51;98814.38;5051256;28;20025;-71
2020/12/22 05:16:12;;;;;;;3.20;1.02;;;;;;;10.81;84.65;98804.59;5051338;28;20031;-71
2020/12/22 05:18:37;;;;;;;4.25;1.38;;;;;;;10.83;84.33;98805.25;5053858;28;20025;-71
2020/12/22 05:21:03;;;;;;;3.88;1.60;;;;;;;10.84;84.61;98805.03;5051708;28;20386;-72
2020/12/22 05:23:30;;;;;;;2.92;1.23;;;;;;;10.77;84.33;98787.09;5065757;28;20036;-72
2020/12/22 05:25:57;;;;;;;2.38;0.90;;;;;;;10.70;84.35;98789.81;5051381;28;20103;-72
2020/12/22 05:28:22;;;;;;;1.73;0.35;;;;;;;10.86;84.51;98802.94;5050596;28;20051;-72
2020/12/22 05:30:50;;;;;;;1.10;0.47;;;;;;;10.85;84.68;98805.88;5051063;28;20385;-72
2020/12/22 05:33:16;;;;;;;0.98;0.38;;;;;;;10.89;84.61;98807.13;5051500;28;20032;-72
2020/12/22 05:35:50;;;;;;;0.52;0.30;;;;;;;10.77;84.91;98796.06;5049227;28;20032;-72
2020/12/22 05:38:18;;;;;;;0.70;0.40;;;;;;;10.82;85.17;98804.41;5049564;28;20425;-72
2020/12/22 05:40:44;;;;;;;0.85;0.40;;;;;;;10.81;85.29;98791.09;5050611;28;20659;-72
2020/12/22 05:43:10;;;;;;;0.30;0.30;;;;;;;10.84;84.91;98806.91;5051113;28;20044;-72
2020/12/22 05:45:38;;;;;;;3.03;0.35;;;;;;;10.86;84.85;98799.41;5049441;28;20033;-72
2020/12/22 05:48:05;;;;;;;0.82;0.32;;;;;;;10.90;84.82;98806.94;5051552;28;20025;-72
2020/12/22 05:50:32;;;;;;;0.55;0.20;;;;;;;10.93;84.74;98811.94;5051114;28;20040;-72
2020/12/22 05:52:58;;;;;;;0.47;0.22;;;;;;;10.89;84.87;98805.25;5050075;28;20024;-72
2020/12/22 05:55:28;;;;;;;0.43;0.20;;;;;;;10.95;84.70;98812.56;5050455;28;20111;-72
2020/12/22 05:58:30;;;;;;;0.35;0.15;;;;;;;10.96;84.87;98819.63;5050111;28;20032;-72
2020/12/22 06:00:55;;;;;;;0.52;0.22;;;;;;;10.96;84.50;98808.81;5024991;28;20120;-72
2020/12/22 06:03:20;;;;;;;4.93;0.20;;;;;;;11.00;84.80;98817.34;5049414;28;20479;-74
2020/12/22 06:05:46;;;;;;;1.13;0.60;;;;;;;10.96;84.59;98807.97;5046381;28;20036;-74
2020/12/22 06:08:16;;;;;;;0.80;0.40;;;;;;;11.06;84.29;98821.94;5044428;28;20025;-77
2020/12/22 06:10:42;;;;;;;0.40;0.30;;;;;;;11.11;84.25;98824.88;5048087;28;20052;-77
2020/12/22 06:13:09;;;;;;;0.30;0.20;;;;;;;11.10;83.91;98822.34;5051111;28;20046;-76
2020/12/22 06:15:35;;;;;;;2.50;0.40;;;;;;;11.07;84.04;98826.31;5050546;28;20495;-77
2020/12/22 06:18:01;;;;;;;0.50;0.30;;;;;;;11.06;84.22;98821.13;5048413;28;20071;-76
2020/12/22 06:20:28;;;;;;;1.00;0.25;;;;;;;11.00;84.17;98811.09;5048172;28;20053;-74
2020/12/22 06:23:00;;;;;;;0.52;0.40;;;;;;;11.06;84.60;98830.06;5048758;28;20037;-77
2020/12/22 06:25:25;;;;;;;0.73;0.30;;;;;;;11.01;84.47;98805.50;5047435;28;20455;-73
2020/12/22 06:27:51;;;;;;;1.17;0.43;;;;;;;11.03;84.50;98832.34;5045631;28;20039;-73
2020/12/22 06:30:17;;;;;;;0.20;0.10;;;;;;;10.89;84.96;98801.72;5048545;28;20067;-75
2020/12/22 06:32:43;;;;;;;0.30;0.20;;;;;;;10.96;85.18;98822.34;5047371;28;20021;-72
2020/12/22 06:35:34;;;;;;;2.55;0.30;;;;;;;10.94;85.36;98813.59;5046549;28;20021;-77
2020/12/22 06:38:00;;;;;;;0.50;0.32;;;;;;;10.88;85.41;98803.59;5037726;28;20167;-76
2020/12/22 06:40:52;;;;;;;0.52;0.30;;;;;;;11.03;84.92;98818.78;5049873;28;20104;-76
2020/12/22 06:43:40;;;;;;;0.40;0.30;;;;;;;10.95;85.21;98820.69;5050328;28;20032;-76
2020/12/22 06:46:28;;;;;;;0.88;0.50;;;;;;;10.88;85.31;98802.75;5050197;28;20048;-74
2020/12/22 06:48:53;;;;;;;0.68;0.30;;;;;;;10.91;85.40;98811.28;5048898;28;20479;-74
2020/12/22 06:51:26;;;;;;;0.60;0.40;;;;;;;11.03;85.37;98822.38;5052102;28;20039;-73
2020/12/22 06:53:51;;;;;;;0.88;0.40;;;;;;;10.96;86.64;98832.34;5053714;28;20052;-73
2020/12/22 06:56:37;;;;;;;0.77;0.60;;;;;;;10.86;87.52;98831.91;5052928;28;20063;-73
2020/12/22 06:59:02;;;;;;;0.32;0.30;;;;;;;10.80;88.33;98832.72;5049180;28;20057;-74
2020/12/22 07:01:31;;;;;;;2.72;0.22;;;;;;;10.77;88.83;98828.56;5049497;28;20106;-74
2020/12/22 07:04:15;;;;;;;0.10;0.10;;;;;;;10.77;88.94;98833.09;5049423;28;20040;-71
2020/12/22 07:06:47;;;;;;;0.32;0.00;;;;;;;10.80;88.92;98840.84;5050183;28;20037;-71
2020/12/22 07:09:15;;;;;;;0.63;0.20;;;;;;;10.75;89.06;98838.75;5050773;28;20398;-71
2020/12/22 07:11:40;;;;;;;0.20;0.05;;;;;;;10.72;88.92;98823.75;5051369;28;20033;-70
2020/12/22 07:14:06;;;;;;;0.10;0.10;;;;;;;10.80;89.01;98843.56;5052386;28;20119;-68
2020/12/22 07:16:44;;;;;;;0.50;0.17;;;;;;;10.78;89.14;98837.50;5051090;28;20087;-69
2020/12/22 07:19:15;;;;;;;0.17;0.10;;;;;;;10.76;89.45;98840.41;5040611;28;20063;-69
2020/12/22 07:21:40;;;;;;;0.47;0.10;;;;;;;10.70;90.02;98850.16;5040159;28;20122;-69
2020/12/22 07:24:07;;;;;;;3.90;0.20;;;;;;;10.68;90.26;98846.81;5045006;28;20648;-72
2020/12/22 07:26:36;;;;;;;0.22;0.20;;;;;;;10.59;90.47;98839.94;5050316;28;20025;-73
2020/12/22 07:29:05;;;;;;;0.40;0.30;;;;;;;10.53;90.59;98846.13;5045627;28;20025;-73
2020/12/22 07:31:32;;;;;;;0.73;0.30;;;;;;;10.55;90.65;98843.25;5052610;28;20056;-73
2020/12/22 07:34:05;;;;;;;1.85;0.30;;;;;;;10.50;90.87;98860.06;5052154;28;20104;-73
2020/12/22 07:36:31;;;;;;;2.15;0.20;;;;;;;10.48;91.35;98865.69;5051807;28;20505;-73
2020/12/22 07:39:12;;;;;;;0.55;0.20;;;;;;;10.49;91.19;98863.81;5052030;28;20147;-73
2020/12/22 07:41:38;;;;;;;0.30;0.10;;;;;;;10.40;91.08;98863.16;5050769;28;20418;-73
2020/12/22 07:44:12;;;;;;;0.90;0.40;;;;;;;10.52;91.08;98882.34;5040974;28;20028;-73
2020/12/22 07:46:38;;;;;;;0.10;0.10;;;;;;;10.48;91.74;98872.97;5051451;28;20024;-73
2020/12/22 07:49:06;;;;;;;2.00;0.50;;;;;;;10.51;91.79;98869.88;5051553;28;20028;-73
2020/12/22 07:51:32;;;;;;;2.13;0.40;;;;;;;10.43;91.58;98864.63;5050768;28;20048;-74
2020/12/22 07:54:02;;;;;;;0.45;0.30;;;;;;;10.50;91.50;98876.31;5050054;28;20032;-74
2020/12/22 07:56:30;;;;;;;1.23;0.28;;;;;;;10.53;91.78;98873.19;5054954;28;20605;-73
2020/12/22 07:58:56;;;;;;;2.47;0.40;;;;;;;10.53;91.26;98870.47;5052009;28;20108;-73
2020/12/22 08:01:23;;;;;;;0.60;0.28;;;;;;;10.58;91.13;98873.41;5052754;28;20112;-73
2020/12/22 08:03:48;;;;;;;5.20;0.35;;;;;;;10.59;91.46;98890.50;5051786;28;20163;-74
2020/12/22 08:06:13;;;;;;;4.03;0.32;;;;;;;10.53;91.69;98882.16;5053080;28;20055;-75
2020/12/22 08:08:39;;;;;;;4.88;0.30;;;;;;;10.50;91.75;98884.41;5051938;28;20390;-74
2020/12/22 08:11:04;;;;;;;1.15;0.20;;;;;;;10.58;91.76;98883.41;5053356;28;20036;-75
2020/12/22 08:13:31;;;;;;;2.90;0.30;;;;;;;10.65;91.78;98897.81;5051791;28;20470;-74
2020/12/22 08:15:58;;;;;;;1.33;0.38;;;;;;;10.66;91.50;98891.34;5052746;28;20035;-73
2020/12/22 08:18:25;;;;;;;1.15;0.32;;;;;;;10.59;92.26;98895.94;5053334;28;20028;-74
2020/12/22 08:20:55;;;;;;;0.40;0.20;;;;;;;10.54;91.88;98893.81;5051311;28;20449;-73
2020/12/22 08:23:21;;;;;;;0.90;0.30;;;;;;;10.63;91.65;98902.59;5052890;28;20437;-73
2020/12/22 08:25:49;;;;;;;1.10;0.30;;;;;;;10.70;91.85;98898.88;5051998;28;20031;-72
2020/12/22 08:28:25;;;;;;;1.70;0.57;;;;;;;10.67;91.82;98910.09;5052599;28;20032;-73
2020/12/22 08:30:50;;;;;;;2.10;0.52;;;;;;;10.64;91.86;98896.97;5049561;28;20032;-73
2020/12/22 08:33:23;;;;;;;1.15;0.50;;;;;;;10.72;91.34;98899.50;5050297;28;20110;-73
2020/12/22 08:35:49;;;;;;;0.95;0.50;;;;;;;10.72;91.89;98910.34;5050811;28;20036;-73
2020/12/22 08:38:25;;;;;;;0.43;0.40;;;;;;;10.69;91.54;98913.44;5052536;28;20017;-73
2020/12/22 08:40:55;;;;;;;4.00;0.57;;;;;;;10.68;91.78;98911.75;5049619;28;20028;-73
2020/12/22 08:43:22;;;;;;;1.58;0.40;;;;;;;10.70;91.92;98925.94;5051437;28;20021;-73
2020/12/22 08:45:48;;;;;;;1.40;0.60;;;;;;;10.70;91.44;98898.88;5045506;28;20036;-73
2020/12/22 08:48:13;;;;;;;0.47;0.32;;;;;;;10.82;91.14;98919.94;5050582;28;20041;-73
2020/12/22 08:50:52;;;;;;;1.73;0.60;;;;;;;10.88;91.38;98925.38;5051420;28;20099;-73
2020/12/22 08:53:17;;;;;;;2.05;0.82;;;;;;;10.83;91.08;98908.91;5051155;28;20416;-76
2020/12/22 08:55:43;;;;;;;1.40;0.75;;;;;;;10.84;91.38;98918.69;5052602;28;20056;-76
2020/12/22 08:58:09;;;;;;;1.38;0.93;;;;;;;10.64;91.75;98902.41;5058942;28;20031;-76
2020/12/22 09:00:34;;;;;;;3.90;0.70;;;;;;;10.76;91.82;98924.28;5051797;28;20032;-75
2020/12/22 09:03:03;;;;;;;3.10;0.50;;;;;;;10.84;91.67;98920.56;5051508;28;20096;-76
2020/12/22 09:05:30;;;;;;;2.70;0.80;;;;;;;10.86;90.99;98927.47;5043122;28;20067;-73
2020/12/22 09:08:00;;;;;;;1.33;0.60;;;;;;;10.97;91.15;98923.31;5050648;28;20286;-72
2020/12/22 09:10:25;;;;;;;2.50;0.70;;;;;;;10.97;91.02;98931.44;5051859;28;20032;-71
2020/12/22 09:12:51;;;;;;;1.25;0.80;;;;;;;11.07;91.01;98937.31;5050731;28;20136;-70
2020/12/22 09:15:17;;;;;;;1.77;1.00;;;;;;;11.06;90.53;98924.00;5050069;28;20108;-71
2020/12/22 09:17:42;;;;;;;1.70;0.93;;;;;;;11.13;90.62;98941.94;5047832;28;20470;-72
2020/12/22 09:20:08;;;;;;;2.33;1.20;;;;;;;11.23;90.17;98946.13;5046807;28;20048;-72
2020/12/22 09:22:34;;;;;;;8.48;1.70;;;;;;;11.20;89.93;98941.94;5048306;28;20087;-71
2020/12/22 09:25:08;;;;;;;6.82;1.92;;;;;;;11.21;90.08;98946.31;5053035;28;20116;-73
2020/12/22 09:27:44;;;;;;;5.88;1.42;;;;;;;11.24;89.70;98945.06;5046572;28;20021;-73
2020/12/22 09:30:12;;;;;;;3.05;1.67;;;;;;;11.24;89.56;98924.25;5045471;28;20463;-73
2020/12/22 09:32:37;;;;;;;2.13;1.17;;;;;;;11.30;89.16;98934.25;5049253;28;20454;-72
2020/12/22 09:35:03;;;;;;;5.55;2.17;;;;;;;11.31;89.14;98935.09;5050929;28;20057;-73
2020/12/22 09:37:29;;;;;;;5.20;2.22;;;;;;;11.35;88.62;98936.38;5050991;28;20021;-74
2020/12/22 09:39:54;;;;;;;5.00;1.98;;;;;;;11.42;88.45;98953.44;5054966;28;20505;-78
2020/12/22 09:42:22;;;;;;;2.45;1.00;;;;;;;11.46;87.80;98946.59;5060923;28;20029;-77
2020/12/22 09:44:47;;;;;;;3.03;0.80;;;;;;;11.53;88.60;98958.28;5048473;28;20063;-74
2020/12/22 09:47:13;;;;;;;1.50;0.60;;;;;;;11.56;88.02;98948.91;5049905;28;20060;-75
2020/12/22 09:49:38;;;;;;;1.90;0.40;;;;;;;11.50;88.38;98957.84;5050252;28;20025;-73
2020/12/22 09:52:04;;;;;;;2.33;0.30;;;;;;;11.52;88.33;98961.19;5050329;28;20104;-69
2020/12/22 09:54:29;;;;;;;1.98;0.38;;;;;;;11.41;88.78;98958.03;5050500;28;20088;-72
2020/12/22 09:56:55;;;;;;;0.82;0.32;;;;;;;11.44;88.77;98967.63;5047571;28;20031;-72
2020/12/22 09:59:21;;;;;;;0.45;0.30;;;;;;;11.39;89.49;98957.41;5047666;28;20116;-72
2020/12/22 10:01:47;;;;;;;4.47;0.40;;;;;;;11.45;89.45;98965.75;5049864;28;20067;-75
2020/12/22 10:04:12;;;;;;;1.27;0.60;;;;;;;11.41;89.16;98966.16;5049262;28;20024;-81
2020/12/22 10:06:38;;;;;;;3.97;0.70;;;;;;;11.43;88.79;98963.25;5051534;28;20031;-80
2020/12/22 10:09:04;;;;;;;2.13;0.70;;;;;;;11.35;88.98;98960.75;5054348;28;20021;-73
2020/12/22 10:11:32;;;;;;;1.05;0.70;;;;;;;11.43;89.14;98965.16;5049758;28;20387;-72
2020/12/22 10:13:57;;;;;;;2.70;0.80;;;;;;;11.46;88.71;98957.44;5051043;28;20025;-73
2020/12/22 10:16:23;;;;;;;1.92;0.80;;;;;;;11.50;88.74;98961.41;5050230;28;20025;-71
2020/12/22 10:18:49;;;;;;;6.55;1.90;;;;;;;11.43;88.83;98960.56;5052503;28;20961;-73
2020/12/22 10:21:16;;;;;;;2.33;1.15;;;;;;;11.52;88.69;98958.47;5054057;28;20031;-73
2020/12/22 10:23:43;;;;;;;3.40;1.10;;;;;;;11.40;88.45;98937.41;5051177;28;20028;-73
2020/12/22 10:26:12;;;;;;;4.72;1.45;;;;;;;11.56;88.37;98957.03;5052367;28;20394;-73
2020/12/22 10:28:39;;;;;;;4.22;1.27;;;;;;;11.54;88.30;98959.94;5052666;28;20390;-73
2020/12/22 10:31:05;;;;;;;5.47;1.98;;;;;;;11.52;88.59;98943.06;5052652;28;20035;-72
2020/12/22 10:33:31;;;;;;;3.97;1.63;;;;;;;11.56;88.66;98963.28;5050977;28;20409;-73
2020/12/22 10:35:57;;;;;;;3.30;1.50;;;;;;;11.60;88.63;98963.69;5052430;28;20032;-73
2020/12/22 10:38:22;;;;;;;4.15;1.55;;;;;;;11.59;88.65;98957.44;5053378;28;20032;-74
2020/12/22 10:40:48;;;;;;;5.80;1.90;;;;;;;11.58;88.45;98963.91;5051898;28;20030;-73
2020/12/22 10:43:14;;;;;;;4.60;1.83;;;;;;;11.59;88.57;98949.31;5052686;28;20588;-73
2020/12/22 10:45:40;;;;;;;3.60;1.73;;;;;;;11.63;88.12;98957.88;5050651;28;20086;-73
2020/12/22 10:48:06;;;;;;;3.10;1.60;;;;;;;11.61;88.22;98957.25;5049890;28;20029;-73
2020/12/22 10:50:32;;;;;;;2.90;1.52;;;;;;;11.57;88.45;98956.81;5048629;28;20742;-74
2020/12/22 10:52:58;;;;;;;3.05;1.70;;;;;;;11.64;87.98;98959.56;5051572;28;20028;-73
2020/12/22 10:55:23;;;;;;;2.42;1.30;;;;;;;11.65;88.19;98971.22;5050131;28;20037;-73
2020/12/22 10:57:50;;;;;;;3.70;1.55;;;;;;;11.65;88.04;98963.09;5050060;28;20024;-73
2020/12/22 11:00:16;;;;;;;1.45;0.95;;;;;;;11.61;88.31;98962.69;5051177;28;20048;-73
2020/12/22 11:02:41;;;;;;;2.17;1.08;;;;;;;11.64;88.08;98962.25;5050717;28;20033;-73
2020/12/22 11:05:07;;;;;;;3.58;1.50;;;;;;;11.68;88.42;98954.53;5048920;28;20035;-73
2020/12/22 11:07:42;;;;;;;3.17;1.10;;;;;;;11.67;88.35;98961.00;5050465;28;20036;-74
2020/12/22 11:10:08;;;;;;;2.80;1.40;;;;;;;11.55;88.17;98947.22;5048728;28;20025;-71
2020/12/22 11:12:33;;;;;;;4.05;1.50;;;;;;;11.62;88.27;98964.34;5050860;28;20028;-74
2020/12/22 11:14:59;;;;;;;2.53;1.27;;;;;;;11.59;88.20;98962.88;5050087;28;20125;-73
2020/12/22 11:17:25;;;;;;;1.88;0.95;;;;;;;11.63;88.20;98961.44;5047285;28;20035;-73
2020/12/22 11:19:50;;;;;;;3.60;0.90;;;;;;;11.63;88.43;98958.72;5051242;28;20029;-73
2020/12/22 11:22:15;;;;;;;1.35;0.50;;;;;;;11.76;87.52;98951.63;5049483;28;20025;-74
2020/12/22 11:24:41;;;;;;;3.70;0.50;;;;;;;11.61;87.71;98933.69;5049845;28;20034;-72
2020/12/22 11:27:06;;;;;;;1.77;0.80;;;;;;;11.76;87.80;98957.03;5050402;28;20656;-73
2020/12/22 11:29:31;;;;;;;0.88;0.47;;;;;;;11.77;87.51;98964.16;5050417;28;20032;-73
2020/12/22 11:31:57;;;;;;;1.23;0.45;;;;;;;11.83;87.17;98964.16;5047030;28;20025;-73
2020/12/22 11:34:22;;;;;;;0.77;0.32;;;;;;;11.86;87.39;98962.94;5041657;28;20024;-73
2020/12/22 11:36:52;;;;;;;4.28;0.40;;;;;;;11.86;87.47;98954.78;5044683;28;20044;-73